Terminal Aerodrome Forecast
Issued by NWS

Home | Current Version | Previous Version | Text Only | Print | Product List | Glossary On
Versions: 1 2 3 4 5 6 7 8 9 10 11 12 13 14 15 16 17 18 19 20
000
FTUS45 KCYS 212320
TAFLAR
TAF
KLAR 212320Z 2200/2224 13010KT P6SM VCTS BKN080CB
      TEMPO 2200/2202 VRB20G30KT -TSRA BKN050CB
     FM220200 14009KT P6SM SCT080
     FM221500 13015G25KT P6SM BKN080
     FM221900 14020G30KT P6SM VCTS BKN080CB=

USA.gov is the U.S. government's official web portal to all federal, state and local government web resources and services.